sensor_id;sensor_type;location;lat;lon;timestamp;temperature;humidity
5334;DHT22;2689;50.954;7.116;2022-08-21T00:01:23;15.60;99.90
5334;DHT22;2689;50.954;7.116;2022-08-21T00:03:50;15.60;99.90
5334;DHT22;2689;50.954;7.116;2022-08-21T00:06:17;15.60;99.90
5334;DHT22;2689;50.954;7.116;2022-08-21T00:08:45;15.50;99.90
5334;DHT22;2689;50.954;7.116;2022-08-21T00:11:12;15.50;99.90
5334;DHT22;2689;50.954;7.116;2022-08-21T00:13:40;15.40;99.90
5334;DHT22;2689;50.954;7.116;2022-08-21T00:16:07;15.40;99.90
5334;DHT22;2689;50.954;7.116;2022-08-21T00:18:34;15.40;99.90
5334;DHT22;2689;50.954;7.116;2022-08-21T00:21:01;15.40;99.90
5334;DHT22;2689;50.954;7.116;2022-08-21T00:23:28;15.30;99.90
5334;DHT22;2689;50.954;7.116;2022-08-21T00:25:56;15.30;99.90
5334;DHT22;2689;50.954;7.116;2022-08-21T00:28:23;15.30;99.90
5334;DHT22;2689;50.954;7.116;2022-08-21T00:30:50;15.30;99.90
5334;DHT22;2689;50.954;7.116;2022-08-21T00:35:46;15.30;99.90
5334;DHT22;2689;50.954;7.116;2022-08-21T00:38:12;15.30;99.90
5334;DHT22;2689;50.954;7.116;2022-08-21T00:40:42;15.20;99.90
5334;DHT22;2689;50.954;7.116;2022-08-21T00:43:14;15.20;99.90
5334;DHT22;2689;50.954;7.116;2022-08-21T00:45:42;15.10;99.90
5334;DHT22;2689;50.954;7.116;2022-08-21T00:48:09;15.10;99.90
5334;DHT22;2689;50.954;7.116;2022-08-21T00:50:41;15.10;99.90
5334;DHT22;2689;50.954;7.116;2022-08-21T00:53:10;15.10;99.90
5334;DHT22;2689;50.954;7.116;2022-08-21T00:55:38;15.10;99.90
5334;DHT22;2689;50.954;7.116;2022-08-21T00:58:06;15.10;99.90
5334;DHT22;2689;50.954;7.116;2022-08-21T01:00:38;15.10;99.90
5334;DHT22;2689;50.954;7.116;2022-08-21T01:03:08;15.10;99.90
5334;DHT22;2689;50.954;7.116;2022-08-21T01:05:35;15.10;99.90
5334;DHT22;2689;50.954;7.116;2022-08-21T01:08:03;15.10;99.90
5334;DHT22;2689;50.954;7.116;2022-08-21T01:10:30;15.10;99.90
5334;DHT22;2689;50.954;7.116;2022-08-21T01:12:57;15.10;99.90
5334;DHT22;2689;50.954;7.116;2022-08-21T01:15:27;15.10;99.90
5334;DHT22;2689;50.954;7.116;2022-08-21T01:17:57;15.10;99.90
5334;DHT22;2689;50.954;7.116;2022-08-21T01:20:24;15.10;99.90
5334;DHT22;2689;50.954;7.116;2022-08-21T01:22:52;15.10;99.90
5334;DHT22;2689;50.954;7.116;2022-08-21T01:25:19;15.10;99.90
5334;DHT22;2689;50.954;7.116;2022-08-21T01:27:46;15.00;99.90
5334;DHT22;2689;50.954;7.116;2022-08-21T01:30:17;15.10;99.90
5334;DHT22;2689;50.954;7.116;2022-08-21T01:32:44;15.00;99.90
5334;DHT22;2689;50.954;7.116;2022-08-21T01:35:13;15.10;99.90
5334;DHT22;2689;50.954;7.116;2022-08-21T01:37:40;15.00;99.90
5334;DHT22;2689;50.954;7.116;2022-08-21T01:40:11;15.00;99.90
5334;DHT22;2689;50.954;7.116;2022-08-21T01:42:38;15.00;99.90
5334;DHT22;2689;50.954;7.116;2022-08-21T01:45:06;14.90;99.90
5334;DHT22;2689;50.954;7.116;2022-08-21T01:47:33;14.90;99.90
5334;DHT22;2689;50.954;7.116;2022-08-21T01:50:00;14.80;99.90
5334;DHT22;2689;50.954;7.116;2022-08-21T01:52:28;14.80;99.90
5334;DHT22;2689;50.954;7.116;2022-08-21T01:54:56;14.80;99.90
5334;DHT22;2689;50.954;7.116;2022-08-21T01:57:24;14.80;99.90
5334;DHT22;2689;50.954;7.116;2022-08-21T01:59:52;14.70;99.90
5334;DHT22;2689;50.954;7.116;2022-08-21T02:02:18;14.70;99.90
5334;DHT22;2689;50.954;7.116;2022-08-21T02:04:45;14.70;99.90
5334;DHT22;2689;50.954;7.116;2022-08-21T02:07:12;14.70;99.90
5334;DHT22;2689;50.954;7.116;2022-08-21T02:09:38;14.60;99.90
5334;DHT22;2689;50.954;7.116;2022-08-21T02:12:07;14.60;99.90
5334;DHT22;2689;50.954;7.116;2022-08-21T02:14:35;14.60;99.90
5334;DHT22;2689;50.954;7.116;2022-08-21T02:17:03;14.60;99.90
5334;DHT22;2689;50.954;7.116;2022-08-21T02:19:29;14.60;99.90
5334;DHT22;2689;50.954;7.116;2022-08-21T02:21:56;14.60;99.90
5334;DHT22;2689;50.954;7.116;2022-08-21T02:24:23;14.60;99.90
5334;DHT22;2689;50.954;7.116;2022-08-21T02:26:49;14.50;99.90
5334;DHT22;2689;50.954;7.116;2022-08-21T02:29:16;14.50;99.90
5334;DHT22;2689;50.954;7.116;2022-08-21T02:31:44;14.50;99.90
5334;DHT22;2689;50.954;7.116;2022-08-21T02:34:11;14.50;99.90
5334;DHT22;2689;50.954;7.116;2022-08-21T02:36:37;14.50;99.90
5334;DHT22;2689;50.954;7.116;2022-08-21T02:39:04;14.50;99.90
5334;DHT22;2689;50.954;7.116;2022-08-21T02:41:31;14.40;99.90
5334;DHT22;2689;50.954;7.116;2022-08-21T02:43:58;14.40;99.90
5334;DHT22;2689;50.954;7.116;2022-08-21T02:46:24;14.40;99.90
5334;DHT22;2689;50.954;7.116;2022-08-21T02:48:52;14.40;99.90
5334;DHT22;2689;50.954;7.116;2022-08-21T02:51:19;14.40;99.90
5334;DHT22;2689;50.954;7.116;2022-08-21T02:53:48;14.40;99.90
5334;DHT22;2689;50.954;7.116;2022-08-21T02:56:17;14.40;99.90
5334;DHT22;2689;50.954;7.116;2022-08-21T02:58:47;14.40;99.90
5334;DHT22;2689;50.954;7.116;2022-08-21T03:01:15;14.30;99.90
5334;DHT22;2689;50.954;7.116;2022-08-21T03:03:43;14.30;99.90
5334;DHT22;2689;50.954;7.116;2022-08-21T03:06:14;14.30;99.90
5334;DHT22;2689;50.954;7.116;2022-08-21T03:08:41;14.30;99.90
5334;DHT22;2689;50.954;7.116;2022-08-21T03:11:11;14.30;99.90
5334;DHT22;2689;50.954;7.116;2022-08-21T03:13:38;14.30;99.90
5334;DHT22;2689;50.954;7.116;2022-08-21T03:16:05;14.30;99.90
5334;DHT22;2689;50.954;7.116;2022-08-21T03:18:33;14.20;99.90
5334;DHT22;2689;50.954;7.116;2022-08-21T03:21:00;14.20;99.90
5334;DHT22;2689;50.954;7.116;2022-08-21T03:23:28;14.20;99.90
5334;DHT22;2689;50.954;7.116;2022-08-21T03:25:56;14.20;99.90
5334;DHT22;2689;50.954;7.116;2022-08-21T03:28:23;14.20;99.90
5334;DHT22;2689;50.954;7.116;2022-08-21T03:30:50;14.20;99.90
5334;DHT22;2689;50.954;7.116;2022-08-21T03:33:17;14.20;99.90
5334;DHT22;2689;50.954;7.116;2022-08-21T03:35:48;14.20;99.90
5334;DHT22;2689;50.954;7.116;2022-08-21T03:38:16;14.10;99.90
5334;DHT22;2689;50.954;7.116;2022-08-21T03:40:46;14.10;99.90
5334;DHT22;2689;50.954;7.116;2022-08-21T03:43:13;14.10;99.90
5334;DHT22;2689;50.954;7.116;2022-08-21T03:45:40;14.10;99.90
5334;DHT22;2689;50.954;7.116;2022-08-21T03:48:08;14.10;99.90
5334;DHT22;2689;50.954;7.116;2022-08-21T03:50:37;14.10;99.90
5334;DHT22;2689;50.954;7.116;2022-08-21T03:53:06;14.20;99.90
5334;DHT22;2689;50.954;7.116;2022-08-21T03:55:32;14.20;99.90
5334;DHT22;2689;50.954;7.116;2022-08-21T03:58:00;14.20;99.90
5334;DHT22;2689;50.954;7.116;2022-08-21T04:00:28;14.10;99.90
5334;DHT22;2689;50.954;7.116;2022-08-21T04:02:54;14.10;99.90
5334;DHT22;2689;50.954;7.116;2022-08-21T04:05:23;14.10;99.90
5334;DHT22;2689;50.954;7.116;2022-08-21T04:07:57;14.10;99.90
5334;DHT22;2689;50.954;7.116;2022-08-21T04:10:26;14.00;99.90
5334;DHT22;2689;50.954;7.116;2022-08-21T04:12:53;14.00;99.90
5334;DHT22;2689;50.954;7.116;2022-08-21T04:15:23;14.00;99.90
5334;DHT22;2689;50.954;7.116;2022-08-21T04:17:51;14.00;99.90
5334;DHT22;2689;50.954;7.116;2022-08-21T04:20:19;14.00;99.90
5334;DHT22;2689;50.954;7.116;2022-08-21T04:22:47;14.00;99.90
5334;DHT22;2689;50.954;7.116;2022-08-21T04:25:15;14.00;99.90
5334;DHT22;2689;50.954;7.116;2022-08-21T04:27:42;14.10;99.90
5334;DHT22;2689;50.954;7.116;2022-08-21T04:30:10;14.10;99.90
5334;DHT22;2689;50.954;7.116;2022-08-21T04:32:38;14.10;99.90
5334;DHT22;2689;50.954;7.116;2022-08-21T04:35:10;14.10;99.90
5334;DHT22;2689;50.954;7.116;2022-08-21T04:37:37;14.10;99.90
5334;DHT22;2689;50.954;7.116;2022-08-21T04:40:05;14.10;99.90
5334;DHT22;2689;50.954;7.116;2022-08-21T04:42:32;14.00;99.90
5334;DHT22;2689;50.954;7.116;2022-08-21T04:44:59;14.10;99.90
5334;DHT22;2689;50.954;7.116;2022-08-21T04:47:26;14.00;99.90
5334;DHT22;2689;50.954;7.116;2022-08-21T04:49:54;14.00;99.90
5334;DHT22;2689;50.954;7.116;2022-08-21T04:52:23;14.00;99.90
5334;DHT22;2689;50.954;7.116;2022-08-21T04:54:51;14.00;99.90
5334;DHT22;2689;50.954;7.116;2022-08-21T04:57:19;14.00;99.90
5334;DHT22;2689;50.954;7.116;2022-08-21T04:59:48;14.10;99.90
5334;DHT22;2689;50.954;7.116;2022-08-21T05:02:17;14.10;99.90
5334;DHT22;2689;50.954;7.116;2022-08-21T05:04:54;14.00;99.90
5334;DHT22;2689;50.954;7.116;2022-08-21T05:07:25;14.00;99.90
5334;DHT22;2689;50.954;7.116;2022-08-21T05:09:53;14.00;99.90
5334;DHT22;2689;50.954;7.116;2022-08-21T05:12:21;14.00;99.90
5334;DHT22;2689;50.954;7.116;2022-08-21T05:14:48;14.00;99.90
5334;DHT22;2689;50.954;7.116;2022-08-21T05:17:15;14.10;99.90
5334;DHT22;2689;50.954;7.116;2022-08-21T05:19:41;14.10;99.90
5334;DHT22;2689;50.954;7.116;2022-08-21T05:22:09;14.10;99.90
5334;DHT22;2689;50.954;7.116;2022-08-21T05:24:36;14.10;99.90
5334;DHT22;2689;50.954;7.116;2022-08-21T05:27:03;14.20;99.90
5334;DHT22;2689;50.954;7.116;2022-08-21T05:29:32;14.20;99.90
5334;DHT22;2689;50.954;7.116;2022-08-21T05:31:59;14.20;99.90
5334;DHT22;2689;50.954;7.116;2022-08-21T05:34:26;14.30;99.90
5334;DHT22;2689;50.954;7.116;2022-08-21T05:36:53;14.30;99.90
5334;DHT22;2689;50.954;7.116;2022-08-21T05:39:21;14.30;99.90
5334;DHT22;2689;50.954;7.116;2022-08-21T05:41:47;14.40;99.90
5334;DHT22;2689;50.954;7.116;2022-08-21T05:44:14;14.40;99.90
5334;DHT22;2689;50.954;7.116;2022-08-21T05:46:41;14.40;99.90
5334;DHT22;2689;50.954;7.116;2022-08-21T05:49:08;14.50;99.90
5334;DHT22;2689;50.954;7.116;2022-08-21T05:51:34;14.50;99.90
5334;DHT22;2689;50.954;7.116;2022-08-21T05:54:02;14.60;99.90
5334;DHT22;2689;50.954;7.116;2022-08-21T05:56:30;14.60;99.90
5334;DHT22;2689;50.954;7.116;2022-08-21T05:58:56;14.70;99.90
5334;DHT22;2689;50.954;7.116;2022-08-21T06:01:23;14.80;99.90
5334;DHT22;2689;50.954;7.116;2022-08-21T06:03:50;14.90;99.90
5334;DHT22;2689;50.954;7.116;2022-08-21T06:06:23;15.00;99.90
5334;DHT22;2689;50.954;7.116;2022-08-21T06:08:50;15.10;99.90
5334;DHT22;2689;50.954;7.116;2022-08-21T06:11:18;15.20;99.90
5334;DHT22;2689;50.954;7.116;2022-08-21T06:13:46;15.30;99.90
5334;DHT22;2689;50.954;7.116;2022-08-21T06:16:15;15.40;99.90
5334;DHT22;2689;50.954;7.116;2022-08-21T06:18:43;15.60;99.90
5334;DHT22;2689;50.954;7.116;2022-08-21T06:21:10;15.70;99.90
5334;DHT22;2689;50.954;7.116;2022-08-21T06:23:37;15.90;99.90
5334;DHT22;2689;50.954;7.116;2022-08-21T06:26:05;16.00;99.90
5334;DHT22;2689;50.954;7.116;2022-08-21T06:28:33;16.20;99.90
5334;DHT22;2689;50.954;7.116;2022-08-21T06:31:01;16.40;99.90
5334;DHT22;2689;50.954;7.116;2022-08-21T06:33:27;16.50;99.90
5334;DHT22;2689;50.954;7.116;2022-08-21T06:35:54;16.70;99.90
5334;DHT22;2689;50.954;7.116;2022-08-21T06:38:21;16.90;99.90
5334;DHT22;2689;50.954;7.116;2022-08-21T06:40:47;17.10;99.90
5334;DHT22;2689;50.954;7.116;2022-08-21T06:43:16;17.30;99.90
5334;DHT22;2689;50.954;7.116;2022-08-21T06:45:43;17.50;99.90
5334;DHT22;2689;50.954;7.116;2022-08-21T06:48:11;17.60;99.90
5334;DHT22;2689;50.954;7.116;2022-08-21T06:50:38;17.80;99.90
5334;DHT22;2689;50.954;7.116;2022-08-21T06:53:07;18.00;99.90
5334;DHT22;2689;50.954;7.116;2022-08-21T06:55:35;18.10;99.90
5334;DHT22;2689;50.954;7.116;2022-08-21T06:58:02;18.30;99.90
5334;DHT22;2689;50.954;7.116;2022-08-21T07:00:29;18.50;99.90
5334;DHT22;2689;50.954;7.116;2022-08-21T07:02:57;18.70;99.90
5334;DHT22;2689;50.954;7.116;2022-08-21T07:05:27;18.90;99.90
5334;DHT22;2689;50.954;7.116;2022-08-21T07:07:54;19.00;99.90
5334;DHT22;2689;50.954;7.116;2022-08-21T07:10:22;19.20;99.90
5334;DHT22;2689;50.954;7.116;2022-08-21T07:12:48;19.30;98.90
5334;DHT22;2689;50.954;7.116;2022-08-21T07:15:15;19.50;98.80
5334;DHT22;2689;50.954;7.116;2022-08-21T07:17:42;19.60;98.00
5334;DHT22;2689;50.954;7.116;2022-08-21T07:20:09;19.80;98.40
5334;DHT22;2689;50.954;7.116;2022-08-21T07:22:38;20.00;97.90
5334;DHT22;2689;50.954;7.116;2022-08-21T07:25:06;20.10;96.60
5334;DHT22;2689;50.954;7.116;2022-08-21T07:27:33;20.30;96.20
5334;DHT22;2689;50.954;7.116;2022-08-21T07:29:59;20.40;96.00
5334;DHT22;2689;50.954;7.116;2022-08-21T07:32:26;20.40;95.50
5334;DHT22;2689;50.954;7.116;2022-08-21T07:34:53;20.50;95.50
5334;DHT22;2689;50.954;7.116;2022-08-21T07:37:19;20.60;94.60
5334;DHT22;2689;50.954;7.116;2022-08-21T07:39:48;20.70;94.60
5334;DHT22;2689;50.954;7.116;2022-08-21T07:42:14;21.00;93.90
5334;DHT22;2689;50.954;7.116;2022-08-21T07:44:42;21.30;94.30
5334;DHT22;2689;50.954;7.116;2022-08-21T07:47:09;21.70;91.70
5334;DHT22;2689;50.954;7.116;2022-08-21T07:49:36;22.00;91.60
5334;DHT22;2689;50.954;7.116;2022-08-21T07:52:03;22.40;89.20
5334;DHT22;2689;50.954;7.116;2022-08-21T07:54:30;22.90;87.70
5334;DHT22;2689;50.954;7.116;2022-08-21T07:56:58;23.60;84.30
5334;DHT22;2689;50.954;7.116;2022-08-21T07:59:24;24.10;81.00
5334;DHT22;2689;50.954;7.116;2022-08-21T08:01:51;24.90;78.80
5334;DHT22;2689;50.954;7.116;2022-08-21T08:04:18;25.70;75.20
5334;DHT22;2689;50.954;7.116;2022-08-21T08:06:44;26.00;70.00
5334;DHT22;2689;50.954;7.116;2022-08-21T08:09:11;26.70;69.00
5334;DHT22;2689;50.954;7.116;2022-08-21T08:11:39;27.50;67.40
5334;DHT22;2689;50.954;7.116;2022-08-21T08:14:10;28.30;64.30
5334;DHT22;2689;50.954;7.116;2022-08-21T08:16:36;28.90;61.30
5334;DHT22;2689;50.954;7.116;2022-08-21T08:19:03;29.50;59.00
5334;DHT22;2689;50.954;7.116;2022-08-21T08:21:30;29.60;57.20
5334;DHT22;2689;50.954;7.116;2022-08-21T08:23:59;30.00;55.70
5334;DHT22;2689;50.954;7.116;2022-08-21T08:26:25;30.70;55.30
5334;DHT22;2689;50.954;7.116;2022-08-21T08:28:52;31.00;52.50
5334;DHT22;2689;50.954;7.116;2022-08-21T08:31:20;30.40;52.00
5334;DHT22;2689;50.954;7.116;2022-08-21T08:33:47;31.10;52.10
5334;DHT22;2689;50.954;7.116;2022-08-21T08:36:15;31.40;50.60
5334;DHT22;2689;50.954;7.116;2022-08-21T08:38:42;31.40;49.50
5334;DHT22;2689;50.954;7.116;2022-08-21T08:41:12;32.10;49.30
5334;DHT22;2689;50.954;7.116;2022-08-21T08:43:42;32.80;47.40
5334;DHT22;2689;50.954;7.116;2022-08-21T08:46:13;33.40;45.20
5334;DHT22;2689;50.954;7.116;2022-08-21T08:48:47;33.50;44.60
5334;DHT22;2689;50.954;7.116;2022-08-21T08:51:21;32.60;46.40
5334;DHT22;2689;50.954;7.116;2022-08-21T08:53:51;33.20;45.00
5334;DHT22;2689;50.954;7.116;2022-08-21T08:56:22;33.90;44.00
5334;DHT22;2689;50.954;7.116;2022-08-21T08:58:52;34.80;42.50
5334;DHT22;2689;50.954;7.116;2022-08-21T09:01:20;34.40;40.80
5334;DHT22;2689;50.954;7.116;2022-08-21T09:03:49;34.90;40.60
5334;DHT22;2689;50.954;7.116;2022-08-21T09:06:26;34.30;40.40
5334;DHT22;2689;50.954;7.116;2022-08-21T09:09:06;34.00;40.40
5334;DHT22;2689;50.954;7.116;2022-08-21T09:11:43;34.00;41.10
5334;DHT22;2689;50.954;7.116;2022-08-21T09:14:19;34.90;40.30
5334;DHT22;2689;50.954;7.116;2022-08-21T09:16:57;35.80;37.40
5334;DHT22;2689;50.954;7.116;2022-08-21T09:19:42;35.60;36.40
5334;DHT22;2689;50.954;7.116;2022-08-21T09:22:19;34.40;37.80
5334;DHT22;2689;50.954;7.116;2022-08-21T09:24:54;35.30;37.30
5334;DHT22;2689;50.954;7.116;2022-08-21T09:27:25;36.20;36.80
5334;DHT22;2689;50.954;7.116;2022-08-21T09:29:54;37.20;36.20
5334;DHT22;2689;50.954;7.116;2022-08-21T09:32:25;38.00;35.00
5334;DHT22;2689;50.954;7.116;2022-08-21T09:34:59;38.60;33.00
5334;DHT22;2689;50.954;7.116;2022-08-21T09:37:27;38.40;31.80
5334;DHT22;2689;50.954;7.116;2022-08-21T09:39:56;38.20;31.80
5334;DHT22;2689;50.954;7.116;2022-08-21T09:42:26;38.00;32.00
5334;DHT22;2689;50.954;7.116;2022-08-21T09:45:08;38.10;32.60
5334;DHT22;2689;50.954;7.116;2022-08-21T09:47:35;37.80;30.80
5334;DHT22;2689;50.954;7.116;2022-08-21T09:50:13;37.70;32.00
5334;DHT22;2689;50.954;7.116;2022-08-21T09:52:46;37.40;33.20
5334;DHT22;2689;50.954;7.116;2022-08-21T09:55:21;38.00;31.90
5334;DHT22;2689;50.954;7.116;2022-08-21T09:58:07;38.80;31.70
5334;DHT22;2689;50.954;7.116;2022-08-21T10:00:35;38.50;30.20
5334;DHT22;2689;50.954;7.116;2022-08-21T10:03:14;38.40;30.30
5334;DHT22;2689;50.954;7.116;2022-08-21T10:05:53;37.20;30.70
5334;DHT22;2689;50.954;7.116;2022-08-21T10:08:22;34.80;33.60
5334;DHT22;2689;50.954;7.116;2022-08-21T10:10:53;34.90;35.00
5334;DHT22;2689;50.954;7.116;2022-08-21T10:13:25;35.50;34.80
5334;DHT22;2689;50.954;7.116;2022-08-21T10:16:04;36.40;32.80
5334;DHT22;2689;50.954;7.116;2022-08-21T10:18:37;37.10;31.90
5334;DHT22;2689;50.954;7.116;2022-08-21T10:21:12;36.20;31.90
5334;DHT22;2689;50.954;7.116;2022-08-21T10:23:49;36.20;32.40
5334;DHT22;2689;50.954;7.116;2022-08-21T10:26:26;36.90;32.60
5334;DHT22;2689;50.954;7.116;2022-08-21T10:29:02;36.30;31.50
5334;DHT22;2689;50.954;7.116;2022-08-21T10:31:40;35.00;32.90
5334;DHT22;2689;50.954;7.116;2022-08-21T10:34:21;34.40;36.30
5334;DHT22;2689;50.954;7.116;2022-08-21T10:37:01;34.00;34.90
5334;DHT22;2689;50.954;7.116;2022-08-21T10:39:33;33.90;36.50
5334;DHT22;2689;50.954;7.116;2022-08-21T10:45:10;36.10;33.30
5334;DHT22;2689;50.954;7.116;2022-08-21T10:47:42;36.60;32.70
5334;DHT22;2689;50.954;7.116;2022-08-21T10:50:15;37.10;31.00
5334;DHT22;2689;50.954;7.116;2022-08-21T10:53:07;37.00;32.40
5334;DHT22;2689;50.954;7.116;2022-08-21T10:55:43;37.90;30.80
5334;DHT22;2689;50.954;7.116;2022-08-21T10:58:14;38.10;30.00
5334;DHT22;2689;50.954;7.116;2022-08-21T11:00:45;37.70;29.20
5334;DHT22;2689;50.954;7.116;2022-08-21T11:03:15;37.10;29.30
5334;DHT22;2689;50.954;7.116;2022-08-21T11:05:48;36.30;30.00
5334;DHT22;2689;50.954;7.116;2022-08-21T11:08:23;36.00;31.70
5334;DHT22;2689;50.954;7.116;2022-08-21T11:10:53;36.50;33.00
5334;DHT22;2689;50.954;7.116;2022-08-21T11:13:27;37.00;30.70
5334;DHT22;2689;50.954;7.116;2022-08-21T11:16:02;36.40;32.30
5334;DHT22;2689;50.954;7.116;2022-08-21T11:18:36;36.80;31.10
5334;DHT22;2689;50.954;7.116;2022-08-21T11:21:08;35.50;32.20
5334;DHT22;2689;50.954;7.116;2022-08-21T11:23:45;35.80;32.90
5334;DHT22;2689;50.954;7.116;2022-08-21T11:26:17;36.10;32.40
5334;DHT22;2689;50.954;7.116;2022-08-21T11:28:50;35.20;33.60
5334;DHT22;2689;50.954;7.116;2022-08-21T11:31:34;34.60;33.80
5334;DHT22;2689;50.954;7.116;2022-08-21T11:34:12;34.80;34.90
5334;DHT22;2689;50.954;7.116;2022-08-21T11:36:47;34.60;32.90
5334;DHT22;2689;50.954;7.116;2022-08-21T11:39:27;34.30;33.00
5334;DHT22;2689;50.954;7.116;2022-08-21T11:42:02;34.70;33.70
5334;DHT22;2689;50.954;7.116;2022-08-21T11:44:40;35.00;32.90
5334;DHT22;2689;50.954;7.116;2022-08-21T11:47:14;35.70;32.10
5334;DHT22;2689;50.954;7.116;2022-08-21T11:49:57;35.60;31.50
5334;DHT22;2689;50.954;7.116;2022-08-21T11:52:33;35.50;31.50
5334;DHT22;2689;50.954;7.116;2022-08-21T11:55:06;35.10;31.50
5334;DHT22;2689;50.954;7.116;2022-08-21T11:57:37;34.80;32.30
5334;DHT22;2689;50.954;7.116;2022-08-21T12:00:08;34.70;32.60
5334;DHT22;2689;50.954;7.116;2022-08-21T12:02:41;34.70;33.20
5334;DHT22;2689;50.954;7.116;2022-08-21T12:05:22;34.40;33.40
5334;DHT22;2689;50.954;7.116;2022-08-21T12:08:00;33.20;34.30
5334;DHT22;2689;50.954;7.116;2022-08-21T12:10:34;34.20;34.30
5334;DHT22;2689;50.954;7.116;2022-08-21T12:13:10;35.00;34.50
5334;DHT22;2689;50.954;7.116;2022-08-21T12:15:39;35.50;32.30
5334;DHT22;2689;50.954;7.116;2022-08-21T12:18:20;34.80;32.70
5334;DHT22;2689;50.954;7.116;2022-08-21T12:20:58;35.00;33.30
5334;DHT22;2689;50.954;7.116;2022-08-21T12:23:28;35.20;32.80
5334;DHT22;2689;50.954;7.116;2022-08-21T12:26:28;36.00;32.40
5334;DHT22;2689;50.954;7.116;2022-08-21T12:29:07;36.90;31.80
5334;DHT22;2689;50.954;7.116;2022-08-21T12:31:49;36.40;30.40
5334;DHT22;2689;50.954;7.116;2022-08-21T12:34:16;35.70;31.60
5334;DHT22;2689;50.954;7.116;2022-08-21T12:36:46;36.10;31.50
5334;DHT22;2689;50.954;7.116;2022-08-21T12:39:22;36.40;31.80
5334;DHT22;2689;50.954;7.116;2022-08-21T12:41:55;36.30;31.10
5334;DHT22;2689;50.954;7.116;2022-08-21T12:44:28;35.50;30.70
5334;DHT22;2689;50.954;7.116;2022-08-21T12:47:01;34.50;31.60
5334;DHT22;2689;50.954;7.116;2022-08-21T12:49:33;34.30;33.40
5334;DHT22;2689;50.954;7.116;2022-08-21T12:52:05;34.90;33.60
5334;DHT22;2689;50.954;7.116;2022-08-21T12:54:39;34.70;32.10
5334;DHT22;2689;50.954;7.116;2022-08-21T12:57:16;34.20;32.90
5334;DHT22;2689;50.954;7.116;2022-08-21T12:59:43;33.60;33.60
5334;DHT22;2689;50.954;7.116;2022-08-21T13:02:16;33.70;33.40
5334;DHT22;2689;50.954;7.116;2022-08-21T13:04:44;34.00;33.50
5334;DHT22;2689;50.954;7.116;2022-08-21T13:07:16;34.50;32.60
5334;DHT22;2689;50.954;7.116;2022-08-21T13:09:49;34.50;32.60
5334;DHT22;2689;50.954;7.116;2022-08-21T13:12:21;34.30;32.30
5334;DHT22;2689;50.954;7.116;2022-08-21T13:14:51;33.80;32.60
5334;DHT22;2689;50.954;7.116;2022-08-21T13:17:20;33.30;33.60
5334;DHT22;2689;50.954;7.116;2022-08-21T13:19:54;33.00;34.40
5334;DHT22;2689;50.954;7.116;2022-08-21T13:22:21;33.60;34.20
5334;DHT22;2689;50.954;7.116;2022-08-21T13:24:48;34.00;33.00
5334;DHT22;2689;50.954;7.116;2022-08-21T13:27:22;34.50;33.00
5334;DHT22;2689;50.954;7.116;2022-08-21T13:30:01;34.80;31.40
5334;DHT22;2689;50.954;7.116;2022-08-21T13:32:30;35.50;30.80
5334;DHT22;2689;50.954;7.116;2022-08-21T13:34:59;35.60;31.10
5334;DHT22;2689;50.954;7.116;2022-08-21T13:37:26;35.90;29.90
5334;DHT22;2689;50.954;7.116;2022-08-21T13:39:54;34.70;31.10
5334;DHT22;2689;50.954;7.116;2022-08-21T13:42:22;34.00;32.00
5334;DHT22;2689;50.954;7.116;2022-08-21T13:44:52;34.60;32.20
5334;DHT22;2689;50.954;7.116;2022-08-21T13:47:19;35.10;31.20
5334;DHT22;2689;50.954;7.116;2022-08-21T13:49:47;34.90;31.10
5334;DHT22;2689;50.954;7.116;2022-08-21T13:52:16;35.80;30.10
5334;DHT22;2689;50.954;7.116;2022-08-21T13:54:43;35.30;31.20
5334;DHT22;2689;50.954;7.116;2022-08-21T13:57:17;36.20;31.30
5334;DHT22;2689;50.954;7.116;2022-08-21T13:59:45;36.80;30.20
5334;DHT22;2689;50.954;7.116;2022-08-21T14:02:14;36.90;29.80
5334;DHT22;2689;50.954;7.116;2022-08-21T14:04:48;36.70;30.90
5334;DHT22;2689;50.954;7.116;2022-08-21T14:07:19;36.50;31.40
5334;DHT22;2689;50.954;7.116;2022-08-21T14:09:47;35.70;31.50
5334;DHT22;2689;50.954;7.116;2022-08-21T14:12:23;36.20;32.20
5334;DHT22;2689;50.954;7.116;2022-08-21T14:14:53;35.70;31.90
5334;DHT22;2689;50.954;7.116;2022-08-21T14:17:27;34.70;32.70
5334;DHT22;2689;50.954;7.116;2022-08-21T14:19:55;34.30;33.10
5334;DHT22;2689;50.954;7.116;2022-08-21T14:22:37;33.90;34.10
5334;DHT22;2689;50.954;7.116;2022-08-21T14:25:06;33.90;34.40
5334;DHT22;2689;50.954;7.116;2022-08-21T14:27:35;33.40;34.60
5334;DHT22;2689;50.954;7.116;2022-08-21T14:30:10;32.70;35.40
5334;DHT22;2689;50.954;7.116;2022-08-21T14:32:41;31.60;36.50
5334;DHT22;2689;50.954;7.116;2022-08-21T14:35:09;31.30;39.00
5334;DHT22;2689;50.954;7.116;2022-08-21T14:37:36;31.00;39.00
5334;DHT22;2689;50.954;7.116;2022-08-21T14:40:04;30.90;38.70
5334;DHT22;2689;50.954;7.116;2022-08-21T14:42:31;30.80;40.10
5334;DHT22;2689;50.954;7.116;2022-08-21T14:45:02;30.70;39.60
5334;DHT22;2689;50.954;7.116;2022-08-21T14:47:32;30.80;39.10
5334;DHT22;2689;50.954;7.116;2022-08-21T14:49:59;30.60;39.60
5334;DHT22;2689;50.954;7.116;2022-08-21T14:52:26;30.20;39.60
5334;DHT22;2689;50.954;7.116;2022-08-21T14:54:53;30.00;40.70
5334;DHT22;2689;50.954;7.116;2022-08-21T14:57:19;29.70;40.90
5334;DHT22;2689;50.954;7.116;2022-08-21T14:59:46;29.50;41.30
5334;DHT22;2689;50.954;7.116;2022-08-21T15:02:13;29.20;41.60
5334;DHT22;2689;50.954;7.116;2022-08-21T15:04:41;29.10;42.70
5334;DHT22;2689;50.954;7.116;2022-08-21T15:07:08;28.80;42.50
5334;DHT22;2689;50.954;7.116;2022-08-21T15:09:35;28.50;43.10
5334;DHT22;2689;50.954;7.116;2022-08-21T15:12:02;28.20;43.70
5334;DHT22;2689;50.954;7.116;2022-08-21T15:14:32;27.90;44.30
5334;DHT22;2689;50.954;7.116;2022-08-21T15:16:59;27.70;45.20
5334;DHT22;2689;50.954;7.116;2022-08-21T15:19:26;27.60;44.70
5334;DHT22;2689;50.954;7.116;2022-08-21T15:21:56;27.50;45.10
5334;DHT22;2689;50.954;7.116;2022-08-21T15:24:23;27.40;45.60
5334;DHT22;2689;50.954;7.116;2022-08-21T15:26:50;27.40;45.60
5334;DHT22;2689;50.954;7.116;2022-08-21T15:29:17;27.40;45.20
5334;DHT22;2689;50.954;7.116;2022-08-21T15:31:51;27.40;45.40
5334;DHT22;2689;50.954;7.116;2022-08-21T15:34:18;27.40;45.30
5334;DHT22;2689;50.954;7.116;2022-08-21T15:36:45;27.30;45.70
5334;DHT22;2689;50.954;7.116;2022-08-21T15:39:13;27.20;45.50
5334;DHT22;2689;50.954;7.116;2022-08-21T15:41:40;27.00;45.60
5334;DHT22;2689;50.954;7.116;2022-08-21T15:44:09;27.00;45.70
5334;DHT22;2689;50.954;7.116;2022-08-21T15:46:37;26.90;45.70
5334;DHT22;2689;50.954;7.116;2022-08-21T15:49:04;26.80;45.50
5334;DHT22;2689;50.954;7.116;2022-08-21T15:51:31;26.60;45.80
5334;DHT22;2689;50.954;7.116;2022-08-21T15:53:58;26.60;46.10
5334;DHT22;2689;50.954;7.116;2022-08-21T15:56:32;26.60;46.20
5334;DHT22;2689;50.954;7.116;2022-08-21T15:59:03;26.50;46.40
5334;DHT22;2689;50.954;7.116;2022-08-21T16:01:30;26.60;46.70
5334;DHT22;2689;50.954;7.116;2022-08-21T16:03:57;26.60;46.50
5334;DHT22;2689;50.954;7.116;2022-08-21T16:06:24;26.70;46.60
5334;DHT22;2689;50.954;7.116;2022-08-21T16:08:51;26.60;46.50
5334;DHT22;2689;50.954;7.116;2022-08-21T16:11:18;26.60;47.40
5334;DHT22;2689;50.954;7.116;2022-08-21T16:13:46;26.70;46.50
5334;DHT22;2689;50.954;7.116;2022-08-21T16:16:18;26.60;46.60
5334;DHT22;2689;50.954;7.116;2022-08-21T16:18:45;26.60;46.70
5334;DHT22;2689;50.954;7.116;2022-08-21T16:21:12;26.70;46.40
5334;DHT22;2689;50.954;7.116;2022-08-21T16:23:39;26.70;46.40